createdAt,value
2022-08-08T00:00:49.968Z,93341.28
2022-08-08T00:02:32.804Z,93336.47
2022-08-08T00:05:44.006Z,93339.66
2022-08-08T00:08:33.145Z,93335.75
2022-08-08T00:11:20.747Z,93334.59
2022-08-08T00:14:16.828Z,93344.97
2022-08-08T00:17:23.412Z,93337.19
2022-08-08T00:20:14.740Z,93333.00
2022-08-08T00:23:06.182Z,93331.72
2022-08-08T00:25:55.093Z,93332.06
2022-08-08T00:28:44.709Z,93334.84
2022-08-08T00:32:28.420Z,93334.66
2022-08-08T00:35:21.020Z,93336.28
2022-08-08T00:38:31.210Z,93331.28
2022-08-08T00:42:08.924Z,93338.78
2022-08-08T00:45:48.007Z,93341.13
2022-08-08T00:49:22.120Z,93339.53
2022-08-08T00:52:29.182Z,93343.47
2022-08-08T00:55:53.288Z,93351.56
2022-08-08T00:59:10.545Z,93349.94
2022-08-08T01:02:02.070Z,93341.00
2022-08-08T01:05:41.948Z,93338.25
2022-08-08T01:09:35.417Z,93344.91
2022-08-08T01:12:34.049Z,93354.09
2022-08-08T01:15:54.733Z,93346.34
2022-08-08T01:20:01.282Z,93343.09
2022-08-08T01:23:06.582Z,93351.69
2022-08-08T01:26:40.355Z,93358.88
2022-08-08T01:29:58.668Z,93360.69
2022-08-08T01:33:23.695Z,93357.75
2022-08-08T01:36:59.742Z,93358.09
2022-08-08T01:40:02.838Z,93360.81
2022-08-08T01:42:54.679Z,93358.22
2022-08-08T01:45:59.727Z,93361.28
2022-08-08T01:48:58.107Z,93353.19
2022-08-08T01:52:42.500Z,93357.56
2022-08-08T01:55:19.617Z,93361.13
2022-08-08T01:58:39.475Z,93362.44
2022-08-08T02:02:02.884Z,93358.22
2022-08-08T02:05:02.585Z,93357.25
2022-08-08T02:08:02.410Z,93363.94
2022-08-08T02:11:00.767Z,93357.78
2022-08-08T02:13:55.403Z,93353.28
2022-08-08T02:16:54.399Z,93352.50
2022-08-08T02:20:07.311Z,93349.75
2022-08-08T02:23:04.794Z,93348.44
2022-08-08T02:26:00.761Z,93351.69
2022-08-08T02:29:01.859Z,93346.97
2022-08-08T02:32:05.508Z,93342.75
2022-08-08T02:35:18.241Z,93349.72
2022-08-08T02:38:55.906Z,93354.19
2022-08-08T02:42:07.850Z,93348.38
2022-08-08T02:45:29.579Z,93343.47
2022-08-08T02:48:48.084Z,93350.78
2022-08-08T02:51:59.800Z,93347.03
2022-08-08T02:55:23.451Z,93351.06
2022-08-08T02:58:47.591Z,93350.91
2022-08-08T03:02:08.056Z,93358.50
2022-08-08T03:05:22.766Z,93353.31
2022-08-08T03:08:53.024Z,93352.53
2022-08-08T03:12:13.836Z,93351.56
2022-08-08T03:15:58.627Z,93361.09
2022-08-08T03:18:31.025Z,93360.31
2022-08-08T03:21:16.047Z,93361.09
2022-08-08T03:24:02.267Z,93360.94
2022-08-08T03:26:53.212Z,93366.13
2022-08-08T03:29:56.155Z,93373.72
2022-08-08T03:33:07.623Z,93361.75
2022-08-08T03:36:15.978Z,93369.00
2022-08-08T03:39:14.557Z,93361.22
2022-08-08T03:42:27.145Z,93352.50
2022-08-08T03:46:06.325Z,93359.94
2022-08-08T03:48:20.962Z,93360.72
2022-08-08T03:51:40.098Z,93362.53
2022-08-08T03:54:40.859Z,93363.31
2022-08-08T03:58:33.347Z,93365.91
2022-08-08T04:00:32.773Z,93368.66
2022-08-08T04:03:57.233Z,93370.28
2022-08-08T04:06:29.610Z,93369.50
2022-08-08T04:09:17.638Z,93378.56
2022-08-08T04:12:03.193Z,93369.50
2022-08-08T04:14:57.017Z,93375.66
2022-08-08T04:17:57.897Z,93372.44
2022-08-08T04:20:42.962Z,93375.19
2022-08-08T04:23:26.083Z,93378.13
2022-08-08T04:26:40.076Z,93385.09
2022-08-08T04:29:37.352Z,93386.06
2022-08-08T04:32:30.578Z,93385.09
2022-08-08T04:35:20.392Z,93387.69
2022-08-08T04:38:09.535Z,93395.44
2022-08-08T04:40:59.137Z,93394.63
2022-08-08T04:43:45.999Z,93394.94
2022-08-08T04:46:36.986Z,93389.63
2022-08-08T04:49:28.745Z,93390.28
2022-08-08T04:52:33.808Z,93398.66
2022-08-08T04:55:20.876Z,93397.53
2022-08-08T04:58:11.055Z,93398.00
2022-08-08T05:00:55.546Z,93401.88
2022-08-08T05:04:09.568Z,93402.16
2022-08-08T05:06:47.419Z,93407.03
2022-08-08T05:09:36.342Z,93411.72
2022-08-08T05:12:20.858Z,93406.84
2022-08-08T05:15:07.308Z,93408.63
2022-08-08T05:17:54.132Z,93409.09
2022-08-08T05:20:49.975Z,93419.13
2022-08-08T05:23:41.171Z,93419.59
2022-08-08T05:26:27.450Z,93412.94
2022-08-08T05:29:12.003Z,93419.22
2022-08-08T05:32:04.026Z,93416.13
2022-08-08T05:34:51.497Z,93416.59
2022-08-08T05:37:54.690Z,93424.53
2022-08-08T05:41:05.770Z,93426.25
2022-08-08T05:44:04.225Z,93429.13
2022-08-08T05:46:51.283Z,93426.19
2022-08-08T05:49:38.144Z,93423.28
2022-08-08T05:52:31.632Z,93429.09
2022-08-08T05:56:11.023Z,93428.78
2022-08-08T05:58:58.189Z,93431.97
2022-08-08T06:01:57.848Z,93439.53
2022-08-08T06:04:43.894Z,93432.50
2022-08-08T06:07:46.130Z,93434.72
2022-08-08T06:10:33.469Z,93434.13
2022-08-08T06:13:22.599Z,93437.59
2022-08-08T06:16:07.001Z,93429.22
2022-08-08T06:19:07.371Z,93432.03
2022-08-08T06:21:57.310Z,93437.25
2022-08-08T06:25:01.066Z,93440.88
2022-08-08T06:27:48.887Z,93434.78
2022-08-08T06:30:36.078Z,93441.69
2022-08-08T06:33:36.924Z,93445.53
2022-08-08T06:36:53.396Z,93448.41
2022-08-08T06:39:56.089Z,93442.84
2022-08-08T06:42:41.792Z,93443.63
2022-08-08T06:45:25.520Z,93443.47
2022-08-08T06:48:11.018Z,93445.09
2022-08-08T06:50:58.611Z,93450.94
2022-08-08T06:53:50.816Z,93459.31
2022-08-08T06:56:42.443Z,93459.97
2022-08-08T07:00:02.562Z,93459.59
2022-08-08T07:02:46.812Z,93461.84
2022-08-08T07:05:40.151Z,93466.50
2022-08-08T07:08:30.525Z,93466.81
2022-08-08T07:11:22.295Z,93468.06
2022-08-08T07:14:08.833Z,93469.94
2022-08-08T07:17:09.234Z,93478.00
2022-08-08T07:20:05.397Z,93470.84
2022-08-08T07:22:59.311Z,93471.25
2022-08-08T07:25:54.438Z,93473.50
2022-08-08T07:28:38.743Z,93479.78
2022-08-08T07:31:25.145Z,93482.66
2022-08-08T07:34:26.597Z,93479.50
2022-08-08T07:37:16.829Z,93480.75
2022-08-08T07:40:02.808Z,93481.19
2022-08-08T07:42:48.427Z,93485.19
2022-08-08T07:45:34.697Z,93486.47
2022-08-08T07:48:34.827Z,93484.28
2022-08-08T07:51:23.972Z,93485.19
2022-08-08T07:54:32.233Z,93487.22
2022-08-08T07:57:29.084Z,93483.88
2022-08-08T08:00:25.180Z,93487.91
2022-08-08T08:03:41.518Z,93486.13
2022-08-08T08:06:30.775Z,93483.13
2022-08-08T08:09:24.878Z,93491.41
2022-08-08T08:12:31.299Z,93493.44
2022-08-08T08:15:21.509Z,93493.88
2022-08-08T08:18:14.253Z,93496.56
2022-08-08T08:21:02.969Z,93494.47
2022-08-08T08:24:02.830Z,93491.94
2022-08-08T08:26:54.711Z,93495.75
2022-08-08T08:29:39.912Z,93495.56
2022-08-08T08:32:35.643Z,93496.25
2022-08-08T08:35:29.728Z,93498.72
2022-08-08T08:38:28.783Z,93491.34
2022-08-08T08:41:20.188Z,93494.16
2022-08-08T08:44:13.842Z,93496.22
2022-08-08T08:46:58.917Z,93494.22
2022-08-08T08:49:44.699Z,93490.59
2022-08-08T08:52:28.807Z,93495.50
2022-08-08T08:55:16.210Z,93495.56
2022-08-08T08:58:05.190Z,93495.50
2022-08-08T09:01:09.015Z,93499.78
2022-08-08T09:04:00.681Z,93495.88
2022-08-08T09:06:51.598Z,93499.38
2022-08-08T09:09:39.868Z,93500.03
2022-08-08T09:12:36.931Z,93494.06
2022-08-08T09:15:37.200Z,93499.94
2022-08-08T09:18:21.498Z,93497.72
2022-08-08T09:21:56.005Z,93503.97
2022-08-08T09:24:15.305Z,93494.94
2022-08-08T09:27:09.239Z,93492.72
2022-08-08T09:30:08.595Z,93492.31
2022-08-08T09:33:12.425Z,93492.72
2022-08-08T09:36:02.749Z,93495.53
2022-08-08T09:38:54.559Z,93492.47
2022-08-08T09:41:54.802Z,93491.31
2022-08-08T09:45:03.866Z,93499.59
2022-08-08T09:48:04.506Z,93494.53
2022-08-08T09:50:56.086Z,93493.13
2022-08-08T09:53:59.705Z,93489.72
2022-08-08T09:56:55.266Z,93490.91
2022-08-08T10:00:02.217Z,93494.69
2022-08-08T10:02:56.801Z,93494.78
2022-08-08T10:05:40.339Z,93482.94
2022-08-08T10:08:23.437Z,93484.75
2022-08-08T10:11:12.116Z,93476.06
2022-08-08T10:14:34.799Z,93479.00
2022-08-08T10:17:56.329Z,93483.28
2022-08-08T10:20:25.973Z,93475.66
2022-08-08T10:23:41.939Z,93475.03
2022-08-08T10:26:52.358Z,93481.34
2022-08-08T10:29:58.949Z,93480.84
2022-08-08T10:32:48.785Z,93477.19
2022-08-08T10:36:09.244Z,93474.50
2022-08-08T10:38:40.627Z,93475.97
2022-08-08T10:41:35.883Z,93475.38
2022-08-08T10:44:36.807Z,93470.50
2022-08-08T10:47:22.795Z,93469.09
2022-08-08T10:50:08.745Z,93470.50
2022-08-08T10:52:52.123Z,93461.06
2022-08-08T10:55:41.138Z,93468.50
2022-08-08T10:58:29.769Z,93462.47
2022-08-08T11:01:13.466Z,93467.34
2022-08-08T11:04:04.670Z,93466.84
2022-08-08T11:06:49.399Z,93465.06
2022-08-08T11:09:32.588Z,93459.34
2022-08-08T11:12:17.416Z,93461.53
2022-08-08T11:15:01.461Z,93457.53
2022-08-08T11:17:58.476Z,93465.69
2022-08-08T11:20:52.362Z,93464.41
2022-08-08T11:23:37.464Z,93464.63
2022-08-08T11:26:22.613Z,93466.44
2022-08-08T11:29:11.611Z,93472.34
2022-08-08T11:31:59.514Z,93467.25
2022-08-08T11:35:08.946Z,93467.72
2022-08-08T11:38:35.701Z,93456.34
2022-08-08T11:40:53.743Z,93460.75
2022-08-08T11:43:41.781Z,93463.59
2022-08-08T11:46:28.132Z,93462.47
2022-08-08T11:49:17.239Z,93458.66
2022-08-08T11:52:00.787Z,93458.97
2022-08-08T11:54:48.226Z,93452.56
2022-08-08T11:57:35.124Z,93446.41
2022-08-08T12:00:19.937Z,93445.91
2022-08-08T12:03:16.922Z,93441.00
2022-08-08T12:06:13.762Z,93447.38
2022-08-08T12:09:07.293Z,93446.72
2022-08-08T12:11:52.492Z,93445.25
2022-08-08T12:14:35.548Z,93449.53
2022-08-08T12:17:20.139Z,93450.56
2022-08-08T12:20:05.187Z,93449.13
2022-08-08T12:22:51.134Z,93445.75
2022-08-08T12:25:38.323Z,93452.25
2022-08-08T12:28:29.421Z,93449.31
2022-08-08T12:31:13.373Z,93445.19
2022-08-08T12:34:02.109Z,93448.38
2022-08-08T12:36:49.113Z,93450.50
2022-08-08T12:40:01.513Z,93448.84
2022-08-08T12:42:46.518Z,93447.22
2022-08-08T12:45:57.829Z,93443.75
2022-08-08T12:48:39.276Z,93446.63
2022-08-08T12:51:23.509Z,93442.19
2022-08-08T12:54:25.448Z,93443.38
2022-08-08T12:57:17.290Z,93443.66
2022-08-08T13:00:04.991Z,93445.47
2022-08-08T13:03:01.048Z,93447.22
2022-08-08T13:06:03.641Z,93449.53
2022-08-08T13:08:53.561Z,93444.94
2022-08-08T13:12:28.218Z,93443.41
2022-08-08T13:14:53.351Z,93444.34
2022-08-08T13:18:09.932Z,93438.72
2022-08-08T13:20:48.392Z,93441.38
2022-08-08T13:23:36.174Z,93428.59
2022-08-08T13:26:20.571Z,93439.25
2022-08-08T13:29:12.876Z,93429.63
2022-08-08T13:32:03.121Z,93429.63
2022-08-08T13:34:52.660Z,93428.31
2022-08-08T13:38:05.862Z,93429.84
2022-08-08T13:40:44.867Z,93423.41
2022-08-08T13:43:28.670Z,93412.78
2022-08-08T13:46:26.846Z,93424.31
2022-08-08T13:50:37.621Z,93415.22
2022-08-08T13:52:23.177Z,93420.53
2022-08-08T13:55:29.352Z,93418.84
2022-08-08T13:58:20.493Z,93418.50
2022-08-08T14:01:15.005Z,93420.25
2022-08-08T14:04:00.232Z,93421.53
2022-08-08T14:06:46.452Z,93427.84
2022-08-08T14:10:05.850Z,93427.78
2022-08-08T14:12:43.746Z,93420.28
2022-08-08T14:15:39.622Z,93422.59
2022-08-08T14:18:35.657Z,93422.22
2022-08-08T14:21:48.766Z,93416.38
2022-08-08T14:24:35.622Z,93421.13
2022-08-08T14:27:20.458Z,93413.72
2022-08-08T14:30:17.790Z,93416.63
2022-08-08T14:33:01.558Z,93414.56
2022-08-08T14:35:44.689Z,93414.63
2022-08-08T14:38:52.643Z,93416.56
2022-08-08T14:41:53.186Z,93424.00
2022-08-08T14:44:39.474Z,93419.31
2022-08-08T14:47:24.805Z,93416.81
2022-08-08T14:50:21.422Z,93419.75
2022-08-08T14:53:15.427Z,93423.72
2022-08-08T14:56:02.164Z,93425.97
2022-08-08T14:58:47.597Z,93426.94
2022-08-08T15:01:37.323Z,93421.81
2022-08-08T15:04:26.319Z,93428.75
2022-08-08T15:07:22.704Z,93427.44
2022-08-08T15:10:09.453Z,93429.41
2022-08-08T15:12:53.858Z,93435.50
2022-08-08T15:16:02.854Z,93427.81
2022-08-08T15:18:40.167Z,93434.34
2022-08-08T15:21:31.206Z,93427.94
2022-08-08T15:24:16.991Z,93428.09
2022-08-08T15:27:12.020Z,93435.19
2022-08-08T15:30:06.244Z,93434.31
2022-08-08T15:32:55.534Z,93435.13
2022-08-08T15:35:40.239Z,93438.75
2022-08-08T15:38:24.445Z,93431.91
2022-08-08T15:41:08.561Z,93433.84
2022-08-08T15:44:01.009Z,93439.09
2022-08-08T15:46:45.335Z,93441.03
2022-08-08T15:49:34.673Z,93440.19
2022-08-08T15:52:25.002Z,93436.44
2022-08-08T15:55:11.228Z,93437.09
2022-08-08T15:57:55.824Z,93435.03
2022-08-08T16:00:40.139Z,93435.03
2022-08-08T16:03:30.651Z,93438.50
2022-08-08T16:06:15.402Z,93440.78
2022-08-08T16:13:03.375Z,93434.22
2022-08-08T16:13:03.375Z,93434.34
2022-08-08T16:15:19.770Z,93431.66
2022-08-08T16:18:11.617Z,93437.47
2022-08-08T16:21:00.576Z,93439.94
2022-08-08T16:23:43.953Z,93435.38
2022-08-08T16:26:34.765Z,93436.84
2022-08-08T16:29:23.802Z,93450.44
2022-08-08T16:32:32.221Z,93442.19
2022-08-08T16:35:15.670Z,93449.47
2022-08-08T16:38:01.965Z,93447.53
2022-08-08T16:40:46.603Z,93444.78
2022-08-08T16:43:42.056Z,93441.66
2022-08-08T16:46:42.844Z,93445.44
2022-08-08T16:49:38.276Z,93448.78
2022-08-08T16:55:01.830Z,93448.63
2022-08-08T16:55:53.884Z,93452.94
2022-08-08T16:58:32.511Z,93452.00
2022-08-08T17:01:17.638Z,93444.78
2022-08-08T17:04:04.270Z,93453.31
2022-08-08T17:06:47.341Z,93458.41
2022-08-08T17:09:44.827Z,93460.06
2022-08-08T17:12:28.872Z,93463.63
2022-08-08T17:15:17.453Z,93463.50
2022-08-08T17:18:04.621Z,93458.56
2022-08-08T17:20:56.630Z,93464.91
2022-08-08T17:24:00.041Z,93475.25
2022-08-08T17:26:42.931Z,93479.19
2022-08-08T17:29:27.702Z,93475.78
2022-08-08T17:32:12.029Z,93471.19
2022-08-08T17:35:54.603Z,93477.47
2022-08-08T17:38:00.253Z,93480.94
2022-08-08T17:40:48.920Z,93484.19
2022-08-08T17:43:32.167Z,93485.84
2022-08-08T17:46:36.566Z,93501.97
2022-08-08T17:49:24.109Z,93497.56
2022-08-08T17:52:11.722Z,93503.81
2022-08-08T17:54:56.743Z,93500.19
2022-08-08T17:57:39.874Z,93510.50
2022-08-08T18:00:30.215Z,93506.88
2022-08-08T18:03:14.188Z,93508.53
2022-08-08T18:05:57.265Z,93515.41
2022-08-08T18:08:41.993Z,93514.41
2022-08-08T18:11:29.498Z,93520.69
2022-08-08T18:14:21.763Z,93521.72
2022-08-08T18:17:06.683Z,93526.78
2022-08-08T18:20:36.895Z,93529.94
2022-08-08T18:23:12.495Z,93534.19
2022-08-08T18:26:01.466Z,93534.56
2022-08-08T18:28:54.840Z,93535.41
2022-08-08T18:31:39.310Z,93541.41
2022-08-08T18:34:26.766Z,93548.88
2022-08-08T18:37:17.830Z,93558.72
2022-08-08T18:40:14.068Z,93556.47
2022-08-08T18:42:57.179Z,93554.66
2022-08-08T18:46:53.377Z,93552.44
2022-08-08T18:48:44.698Z,93558.25
2022-08-08T18:51:52.484Z,93572.28
2022-08-08T18:54:33.250Z,93574.81
2022-08-08T18:57:17.054Z,93581.03
2022-08-08T19:00:01.484Z,93577.19
2022-08-08T19:02:48.061Z,93589.22
2022-08-08T19:05:37.312Z,93587.53
2022-08-08T19:08:29.435Z,93593.72
2022-08-08T19:11:12.701Z,93588.72
2022-08-08T19:14:00.814Z,93594.94
2022-08-08T19:16:43.990Z,93595.09
2022-08-08T19:19:30.057Z,93596.91
2022-08-08T19:22:14.483Z,93595.88
2022-08-08T19:26:02.421Z,93599.88
2022-08-08T19:28:17.929Z,93603.88
2022-08-08T19:31:08.941Z,93601.66
2022-08-08T19:34:30.156Z,93604.22
2022-08-08T19:36:58.925Z,93619.41
2022-08-08T19:39:42.970Z,93613.34
2022-08-08T19:42:28.698Z,93616.06
2022-08-08T19:45:14.068Z,93625.56
2022-08-08T19:47:57.459Z,93622.59
2022-08-08T19:50:40.491Z,93620.22
2022-08-08T19:53:50.948Z,93627.94
2022-08-08T19:56:40.417Z,93629.84
2022-08-08T19:59:24.045Z,93634.00
2022-08-08T20:02:10.557Z,93633.91
2022-08-08T20:04:53.741Z,93631.75
2022-08-08T20:08:30.135Z,93639.75
2022-08-08T20:10:42.509Z,93627.72
2022-08-08T20:14:31.420Z,93625.53
2022-08-08T20:16:29.585Z,93626.34
2022-08-08T20:19:13.831Z,93625.72
2022-08-08T20:22:01.090Z,93622.69
2022-08-08T20:24:46.192Z,93619.38
2022-08-08T20:27:43.733Z,93622.53
2022-08-08T20:30:53.179Z,93624.50
2022-08-08T20:34:03.922Z,93625.50
2022-08-08T20:36:39.866Z,93614.09
2022-08-08T20:39:39.399Z,93619.94
2022-08-08T20:42:28.353Z,93619.75
2022-08-08T20:45:14.318Z,93617.13
2022-08-08T20:48:21.480Z,93622.34
2022-08-08T20:51:09.369Z,93613.91
2022-08-08T20:53:59.755Z,93618.31
2022-08-08T20:57:05.767Z,93622.69
2022-08-08T20:59:51.786Z,93622.25
2022-08-08T21:02:37.226Z,93621.00
2022-08-08T21:05:21.471Z,93627.19
2022-08-08T21:08:37.305Z,93635.19
2022-08-08T21:11:09.736Z,93633.59
2022-08-08T21:13:54.014Z,93638.34
2022-08-08T21:16:41.635Z,93627.66
2022-08-08T21:19:26.084Z,93628.38
2022-08-08T21:22:17.278Z,93627.31
2022-08-08T21:25:00.390Z,93632.06
2022-08-08T21:28:09.681Z,93624.41
2022-08-08T21:30:52.128Z,93633.06
2022-08-08T21:33:35.934Z,93634.81
2022-08-08T21:36:28.424Z,93629.81
2022-08-08T21:39:16.568Z,93628.19
2022-08-08T21:41:59.759Z,93628.28
2022-08-08T21:44:58.723Z,93625.47
2022-08-08T21:48:05.916Z,93626.75
2022-08-08T21:50:48.158Z,93630.25
2022-08-08T21:54:34.782Z,93628.97
2022-08-08T21:56:42.134Z,93632.53
2022-08-08T21:59:26.690Z,93629.34
2022-08-08T22:02:27.223Z,93630.38
2022-08-08T22:05:10.756Z,93629.00
2022-08-08T22:08:00.235Z,93627.72
2022-08-08T22:10:45.272Z,93628.88
2022-08-08T22:13:47.835Z,93629.50
2022-08-08T22:16:34.650Z,93634.84
2022-08-08T22:19:17.782Z,93637.56
2022-08-08T22:22:06.926Z,93626.06
2022-08-08T22:24:56.287Z,93630.91
2022-08-08T22:28:02.807Z,93624.91
2022-08-08T22:30:50.936Z,93621.31
2022-08-08T22:34:13.258Z,93622.28
2022-08-08T22:36:39.663Z,93619.69
2022-08-08T22:39:39.478Z,93625.06
2022-08-08T22:42:31.990Z,93627.50
2022-08-08T22:45:19.171Z,93629.09
2022-08-08T22:48:02.434Z,93624.38
2022-08-08T22:50:45.690Z,93627.78
2022-08-08T22:54:33.781Z,93630.22
2022-08-08T22:56:34.762Z,93629.06
2022-08-08T22:59:18.816Z,93617.53
2022-08-08T23:02:12.809Z,93623.69
2022-08-08T23:05:05.054Z,93617.69
2022-08-08T23:07:58.016Z,93617.84
2022-08-08T23:10:41.241Z,93617.06
2022-08-08T23:13:25.565Z,93618.03
2022-08-08T23:16:41.720Z,93617.56
2022-08-08T23:19:32.369Z,93617.22
2022-08-08T23:22:16.727Z,93616.41
2022-08-08T23:24:59.771Z,93608.97
2022-08-08T23:27:46.609Z,93608.72
2022-08-08T23:30:29.811Z,93609.09
2022-08-08T23:33:19.168Z,93618.56
2022-08-08T23:36:20.703Z,93605.91
2022-08-08T23:39:09.534Z,93612.56
2022-08-08T23:41:53.546Z,93609.66
2022-08-08T23:44:38.441Z,93605.13
2022-08-08T23:49:08.765Z,93609.34
2022-08-08T23:50:30.039Z,93602.00
2022-08-08T23:53:30.800Z,93607.03
2022-08-08T23:56:31.945Z,93609.66
2022-08-08T23:59:16.905Z,93603.16
